Time;durP1;ratioP1;P1;durP2;ratioP2;P2;SDS_P1;SDS_P2;PMS_P1;PMS_P2;Temp;Humidity;BMP_temperature;BMP_pressure;BME280_temperature;BME280_humidity;BME280_pressure;Samples;Min_cycle;Max_cycle;Signal;HPM_P1;HPM_P2
2023/12/09 00:01:44;;;;;;;11.82;3.60;;;;;;;;;;6394016;22;20464;-77
2023/12/09 00:04:09;;;;;;;9.65;2.65;;;;;;;;;;6422457;22;20020;-77
2023/12/09 00:06:35;;;;;;;20.13;4.18;;;;;;;;;;6421850;22;20006;-77
2023/12/09 00:09:00;;;;;;;14.40;4.35;;;;;;;;;;6423248;22;20019;-77
2023/12/09 00:11:25;;;;;;;13.43;3.80;;;;;;;;;;6394041;22;20036;-77
2023/12/09 00:13:51;;;;;;;14.52;4.63;;;;;;;;;;6394397;22;20010;-77
2023/12/09 00:16:18;;;;;;;17.13;3.78;;;;;;;;;;6422381;22;19998;-77
2023/12/09 00:18:44;;;;;;;23.13;3.97;;;;;;;;;;6394663;22;20005;-77
2023/12/09 00:21:10;;;;;;;14.63;3.42;;;;;;;;;;6424270;22;20069;-77
2023/12/09 00:23:36;;;;;;;12.98;4.03;;;;;;;;;;6399677;22;20013;-77
2023/12/09 00:26:01;;;;;;;19.60;4.25;;;;;;;;;;6410478;22;20013;-77
2023/12/09 00:28:26;;;;;;;14.65;3.40;;;;;;;;;;6415954;22;20401;-77
2023/12/09 00:30:52;;;;;;;11.00;4.03;;;;;;;;;;6401946;22;20020;-76
2023/12/09 00:33:17;;;;;;;14.85;3.85;;;;;;;;;;6426961;22;20471;-77
2023/12/09 00:35:43;;;;;;;15.57;3.85;;;;;;;;;;6423828;22;20020;-76
2023/12/09 00:38:08;;;;;;;12.98;3.30;;;;;;;;;;6394011;22;20010;-76
2023/12/09 00:40:33;;;;;;;16.23;3.88;;;;;;;;;;6394326;22;20006;-76
2023/12/09 00:42:59;;;;;;;16.33;3.67;;;;;;;;;;6422626;22;20005;-76
2023/12/09 00:45:25;;;;;;;12.40;3.50;;;;;;;;;;6422896;22;20002;-77
2023/12/09 00:47:51;;;;;;;14.45;3.05;;;;;;;;;;6393483;22;20017;-77
2023/12/09 00:50:16;;;;;;;12.93;3.15;;;;;;;;;;6422335;22;20011;-77
2023/12/09 00:52:41;;;;;;;7.82;2.40;;;;;;;;;;6421872;22;20013;-77
2023/12/09 00:55:07;;;;;;;12.90;3.28;;;;;;;;;;6422408;22;20028;-77
2023/12/09 00:57:32;;;;;;;10.07;2.58;;;;;;;;;;6422297;22;20021;-77
2023/12/09 00:59:58;;;;;;;22.63;4.05;;;;;;;;;;6422796;22;20016;-77
2023/12/09 01:02:23;;;;;;;13.35;3.45;;;;;;;;;;6422299;22;20089;-77
2023/12/09 01:04:48;;;;;;;14.38;3.30;;;;;;;;;;6393199;22;20022;-77
2023/12/09 01:07:14;;;;;;;16.75;4.30;;;;;;;;;;6421803;22;20421;-77
2023/12/09 01:09:39;;;;;;;16.27;3.90;;;;;;;;;;6422446;22;20007;-77
2023/12/09 01:12:05;;;;;;;17.58;3.90;;;;;;;;;;6393632;22;20024;-77
2023/12/09 01:14:30;;;;;;;12.82;3.50;;;;;;;;;;6392891;22;20018;-77
2023/12/09 01:16:56;;;;;;;13.27;4.05;;;;;;;;;;6422027;22;20041;-77
2023/12/09 01:19:21;;;;;;;13.60;3.95;;;;;;;;;;6421884;22;20033;-77
2023/12/09 01:21:47;;;;;;;18.60;3.50;;;;;;;;;;6421954;22;20010;-77
2023/12/09 01:24:12;;;;;;;15.32;4.25;;;;;;;;;;6422557;22;19993;-77
2023/12/09 01:26:37;;;;;;;21.10;4.22;;;;;;;;;;6393206;22;20048;-77
2023/12/09 01:29:03;;;;;;;16.20;3.28;;;;;;;;;;6393454;22;20025;-77
2023/12/09 01:31:30;;;;;;;15.55;3.50;;;;;;;;;;6420452;22;20869;-77
2023/12/09 01:33:55;;;;;;;16.70;3.92;;;;;;;;;;6394374;22;20854;-77
2023/12/09 01:36:21;;;;;;;19.90;4.43;;;;;;;;;;6423770;22;19993;-77
2023/12/09 01:38:46;;;;;;;21.70;5.18;;;;;;;;;;6424891;22;20020;-77
2023/12/09 01:41:11;;;;;;;16.90;5.15;;;;;;;;;;6425090;22;20479;-77
2023/12/09 01:43:37;;;;;;;16.70;5.07;;;;;;;;;;6429067;22;20032;-77
2023/12/09 01:46:09;;;;;;;16.92;4.80;;;;;;;;;;6410181;22;20065;-77
2023/12/09 01:48:34;;;;;;;16.85;5.40;;;;;;;;;;6434457;22;20001;-77
2023/12/09 01:51:04;;;;;;;17.90;5.13;;;;;;;;;;6424852;22;20004;-77
2023/12/09 01:53:30;;;;;;;12.43;4.53;;;;;;;;;;6423317;22;20037;-77
2023/12/09 01:55:59;;;;;;;14.05;5.72;;;;;;;;;;6423737;22;20009;-76
2023/12/09 01:58:25;;;;;;;16.60;5.20;;;;;;;;;;6423979;22;20069;-77
2023/12/09 02:00:51;;;;;;;10.70;4.88;;;;;;;;;;6395153;22;20840;-77
2023/12/09 02:03:17;;;;;;;13.85;4.85;;;;;;;;;;6424345;22;19998;-77
2023/12/09 02:05:42;;;;;;;13.10;4.63;;;;;;;;;;6395202;22;20024;-77
2023/12/09 02:08:08;;;;;;;22.08;6.43;;;;;;;;;;6423363;22;20372;-77
2023/12/09 02:10:33;;;;;;;24.58;6.65;;;;;;;;;;6424106;22;20084;-77
2023/12/09 02:13:34;;;;;;;20.95;5.53;;;;;;;;;;6395054;22;20464;-77
2023/12/09 02:16:13;;;;;;;16.73;5.75;;;;;;;;;;6423482;22;20198;-77
2023/12/09 02:18:41;;;;;;;19.08;5.80;;;;;;;;;;6423535;22;20642;-77
2023/12/09 02:21:06;;;;;;;17.60;6.25;;;;;;;;;;6422931;22;19994;-77
2023/12/09 02:23:31;;;;;;;16.55;5.68;;;;;;;;;;6395106;22;20010;-77
2023/12/09 02:26:03;;;;;;;16.17;4.43;;;;;;;;;;6423654;22;20021;-77
2023/12/09 02:28:31;;;;;;;18.35;5.65;;;;;;;;;;6394548;22;20005;-77
2023/12/09 02:31:15;;;;;;;28.48;7.30;;;;;;;;;;6395291;22;20078;-77
2023/12/09 02:33:43;;;;;;;16.52;4.82;;;;;;;;;;6423680;22;20002;-77
2023/12/09 02:36:10;;;;;;;16.77;5.97;;;;;;;;;;6423721;22;20042;-77
2023/12/09 02:38:37;;;;;;;18.17;5.70;;;;;;;;;;6423691;22;20039;-77
2023/12/09 02:41:05;;;;;;;19.55;6.13;;;;;;;;;;6395252;22;20040;-77
2023/12/09 02:43:31;;;;;;;17.70;6.55;;;;;;;;;;6393979;22;20021;-77
2023/12/09 02:45:56;;;;;;;19.60;6.57;;;;;;;;;;6394540;22;20061;-77
2023/12/09 02:48:25;;;;;;;19.02;6.82;;;;;;;;;;6424461;22;20001;-77
2023/12/09 02:50:50;;;;;;;24.58;7.30;;;;;;;;;;6394804;22;20040;-77
2023/12/09 02:53:16;;;;;;;15.73;5.95;;;;;;;;;;6394289;22;20052;-77
2023/12/09 02:55:41;;;;;;;17.08;6.53;;;;;;;;;;6423908;22;20081;-77
2023/12/09 02:58:06;;;;;;;26.55;7.57;;;;;;;;;;6423551;22;20016;-78
2023/12/09 03:00:32;;;;;;;22.67;5.97;;;;;;;;;;6395480;22;20088;-77
2023/12/09 03:02:57;;;;;;;10.52;3.95;;;;;;;;;;6398848;22;20422;-77
2023/12/09 03:05:22;;;;;;;11.10;4.75;;;;;;;;;;6407592;22;20018;-77
2023/12/09 03:07:48;;;;;;;16.88;6.18;;;;;;;;;;6416767;22;20009;-77
2023/12/09 03:10:13;;;;;;;13.65;5.47;;;;;;;;;;6401481;22;20059;-77
2023/12/09 03:12:38;;;;;;;22.92;6.25;;;;;;;;;;6397160;22;20113;-77
2023/12/09 03:15:05;;;;;;;20.35;6.90;;;;;;;;;;6424485;22;20531;-77
2023/12/09 03:17:33;;;;;;;20.83;6.60;;;;;;;;;;6394954;22;20050;-77
2023/12/09 03:19:58;;;;;;;23.33;6.57;;;;;;;;;;6394412;22;20074;-77
2023/12/09 03:22:23;;;;;;;12.45;4.82;;;;;;;;;;6394353;22;20476;-77
2023/12/09 03:24:49;;;;;;;21.33;6.43;;;;;;;;;;6393261;22;20009;-76
2023/12/09 03:27:14;;;;;;;26.17;7.22;;;;;;;;;;6394385;22;20013;-77
2023/12/09 03:29:40;;;;;;;20.50;6.47;;;;;;;;;;6393154;22;20463;-77
2023/12/09 03:32:06;;;;;;;21.13;7.65;;;;;;;;;;6422973;22;20153;-77
2023/12/09 03:34:31;;;;;;;14.38;4.75;;;;;;;;;;6421657;22;20012;-77
2023/12/09 03:36:56;;;;;;;25.83;6.88;;;;;;;;;;6394701;22;20017;-77
2023/12/09 03:39:22;;;;;;;25.42;6.60;;;;;;;;;;6423078;22;20080;-77
2023/12/09 03:41:47;;;;;;;19.90;5.88;;;;;;;;;;6421418;22;20013;-77
2023/12/09 03:44:13;;;;;;;17.75;5.43;;;;;;;;;;6422342;22;20017;-77
2023/12/09 03:46:38;;;;;;;19.50;6.72;;;;;;;;;;6421739;22;20021;-77
2023/12/09 03:49:03;;;;;;;30.23;7.50;;;;;;;;;;6421128;22;20262;-77
2023/12/09 03:51:29;;;;;;;16.65;7.70;;;;;;;;;;6422594;22;20001;-77
2023/12/09 03:53:54;;;;;;;26.58;6.93;;;;;;;;;;6421238;22;20005;-77
2023/12/09 03:56:21;;;;;;;18.50;5.13;;;;;;;;;;6422694;22;20016;-77
2023/12/09 03:58:47;;;;;;;12.68;4.43;;;;;;;;;;6421205;22;20074;-77
2023/12/09 04:01:12;;;;;;;20.10;6.97;;;;;;;;;;6393894;22;20079;-77
2023/12/09 04:03:38;;;;;;;28.15;7.57;;;;;;;;;;6393959;22;20036;-77
2023/12/09 04:06:05;;;;;;;26.77;8.23;;;;;;;;;;6394371;22;20040;-77
2023/12/09 04:08:31;;;;;;;21.25;5.28;;;;;;;;;;6422047;22;20012;-77
2023/12/09 04:10:56;;;;;;;28.48;6.82;;;;;;;;;;6421752;22;20084;-77
2023/12/09 04:13:21;;;;;;;21.15;6.05;;;;;;;;;;6422689;22;20465;-77
2023/12/09 04:15:47;;;;;;;17.27;5.30;;;;;;;;;;6422373;22;20459;-77
2023/12/09 04:18:13;;;;;;;24.10;6.68;;;;;;;;;;6393385;22;20009;-77
2023/12/09 04:20:38;;;;;;;21.05;6.55;;;;;;;;;;6423119;22;20009;-78
2023/12/09 04:23:04;;;;;;;21.02;6.40;;;;;;;;;;6396018;22;20024;-76
2023/12/09 04:25:30;;;;;;;31.38;7.68;;;;;;;;;;6405474;22;20469;-77
2023/12/09 04:27:56;;;;;;;23.15;7.20;;;;;;;;;;6436846;22;20010;-77
2023/12/09 04:30:24;;;;;;;24.10;7.10;;;;;;;;;;6424158;22;19997;-76
2023/12/09 04:32:49;;;;;;;21.67;6.53;;;;;;;;;;6420852;22;20461;-77
2023/12/09 04:35:15;;;;;;;27.45;6.75;;;;;;;;;;6421799;22;20013;-77
2023/12/09 04:37:41;;;;;;;25.38;5.50;;;;;;;;;;6422787;22;20013;-77
2023/12/09 04:40:10;;;;;;;30.75;6.70;;;;;;;;;;6420666;22;20364;-77
2023/12/09 04:42:36;;;;;;;20.73;5.82;;;;;;;;;;6393263;22;20025;-77
2023/12/09 04:45:02;;;;;;;16.10;6.50;;;;;;;;;;6422465;22;20024;-77
2023/12/09 04:47:28;;;;;;;12.90;4.65;;;;;;;;;;6422159;22;20077;-77
2023/12/09 04:49:53;;;;;;;15.52;4.40;;;;;;;;;;6394105;22;20052;-77
2023/12/09 04:52:19;;;;;;;23.08;6.78;;;;;;;;;;6393488;22;20013;-77
2023/12/09 04:54:44;;;;;;;19.65;5.53;;;;;;;;;;6421801;22;20021;-77
2023/12/09 04:57:10;;;;;;;17.38;5.72;;;;;;;;;;6423260;22;20000;-77
2023/12/09 04:59:35;;;;;;;15.65;5.70;;;;;;;;;;6421951;22;20062;-77
2023/12/09 05:02:01;;;;;;;17.77;4.90;;;;;;;;;;6421917;22;20033;-77
2023/12/09 05:04:26;;;;;;;14.07;4.93;;;;;;;;;;6393589;22;20028;-77
2023/12/09 05:06:51;;;;;;;21.02;5.32;;;;;;;;;;6422077;22;20025;-77
2023/12/09 05:09:17;;;;;;;13.57;3.80;;;;;;;;;;6395982;22;20005;-77
2023/12/09 05:11:42;;;;;;;14.90;4.82;;;;;;;;;;6424644;22;20010;-77
2023/12/09 05:14:07;;;;;;;24.63;4.32;;;;;;;;;;6395471;22;20097;-77
2023/12/09 05:16:33;;;;;;;21.73;4.45;;;;;;;;;;6423565;22;20005;-77
2023/12/09 05:18:58;;;;;;;21.15;5.03;;;;;;;;;;6424699;22;20479;-77
2023/12/09 05:21:24;;;;;;;19.30;5.40;;;;;;;;;;6396329;22;20053;-77
2023/12/09 05:23:49;;;;;;;11.77;3.58;;;;;;;;;;6423674;22;20009;-77
2023/12/09 05:26:30;;;;;;;18.67;4.63;;;;;;;;;;6393910;22;20793;-77
2023/12/09 05:28:56;;;;;;;9.80;3.13;;;;;;;;;;6423810;22;20040;-77
2023/12/09 05:31:22;;;;;;;12.50;4.03;;;;;;;;;;6424472;22;20001;-77
2023/12/09 05:33:48;;;;;;;13.48;4.40;;;;;;;;;;6424170;22;20009;-77
2023/12/09 05:36:14;;;;;;;13.57;3.60;;;;;;;;;;6423821;22;20000;-77
2023/12/09 05:38:42;;;;;;;10.63;4.35;;;;;;;;;;6424904;22;20064;-77
2023/12/09 05:41:09;;;;;;;11.85;3.45;;;;;;;;;;6396129;22;20017;-77
2023/12/09 05:43:39;;;;;;;8.43;2.83;;;;;;;;;;6428454;22;20520;-76
2023/12/09 05:46:05;;;;;;;7.47;2.55;;;;;;;;;;6411114;22;20068;-77
2023/12/09 05:48:33;;;;;;;9.75;3.22;;;;;;;;;;6415519;22;19998;-76
2023/12/09 05:50:59;;;;;;;3.88;2.53;;;;;;;;;;6429499;22;20501;-77
2023/12/09 05:53:24;;;;;;;24.02;4.30;;;;;;;;;;6395970;22;20005;-77
2023/12/09 05:55:49;;;;;;;12.73;3.28;;;;;;;;;;6395800;22;20444;-77
2023/12/09 05:58:15;;;;;;;8.52;2.83;;;;;;;;;;6425439;22;20012;-77
2023/12/09 06:00:40;;;;;;;11.05;3.55;;;;;;;;;;6423827;22;19993;-77
2023/12/09 06:03:05;;;;;;;10.55;3.40;;;;;;;;;;6424748;22;20001;-77
2023/12/09 06:05:31;;;;;;;9.07;3.08;;;;;;;;;;6423632;22;20581;-77
2023/12/09 06:07:56;;;;;;;8.57;3.03;;;;;;;;;;6424053;22;20017;-77
2023/12/09 06:10:22;;;;;;;19.88;3.78;;;;;;;;;;6423366;22;20005;-77
2023/12/09 06:12:47;;;;;;;8.63;2.80;;;;;;;;;;6424125;22;20017;-77
2023/12/09 06:15:12;;;;;;;7.60;3.47;;;;;;;;;;6395900;22;19993;-77
2023/12/09 06:17:38;;;;;;;7.25;2.70;;;;;;;;;;6423422;22;20630;-77
2023/12/09 06:20:07;;;;;;;14.77;3.55;;;;;;;;;;6394490;22;20089;-77
2023/12/09 06:22:32;;;;;;;15.88;1.95;;;;;;;;;;6395225;22;20009;-77
2023/12/09 06:24:58;;;;;;;9.38;2.28;;;;;;;;;;6422617;22;20021;-76
2023/12/09 06:27:24;;;;;;;7.75;3.10;;;;;;;;;;6421856;22;20833;-77
2023/12/09 06:29:51;;;;;;;10.07;3.53;;;;;;;;;;6422522;22;20555;-77
2023/12/09 06:32:16;;;;;;;11.05;3.30;;;;;;;;;;6394314;22;20323;-77
2023/12/09 06:34:41;;;;;;;7.00;2.47;;;;;;;;;;6423351;22;20005;-77
2023/12/09 06:37:07;;;;;;;11.63;2.50;;;;;;;;;;6422471;22;20432;-77
2023/12/09 06:39:33;;;;;;;12.85;2.40;;;;;;;;;;6394798;22;19994;-77
2023/12/09 06:41:59;;;;;;;11.55;2.80;;;;;;;;;;6394133;22;20024;-77
2023/12/09 06:44:25;;;;;;;12.00;2.97;;;;;;;;;;6393641;22;20016;-77
2023/12/09 06:46:50;;;;;;;11.70;2.95;;;;;;;;;;6394698;22;20025;-77
2023/12/09 06:49:18;;;;;;;11.68;3.35;;;;;;;;;;6422984;22;20367;-77
2023/12/09 06:51:43;;;;;;;9.82;3.10;;;;;;;;;;6394594;22;19993;-77
2023/12/09 06:54:10;;;;;;;6.00;2.53;;;;;;;;;;6394520;22;20076;-77
2023/12/09 06:56:36;;;;;;;8.85;2.80;;;;;;;;;;6423251;22;20363;-77
2023/12/09 06:59:01;;;;;;;11.32;3.15;;;;;;;;;;6394300;22;20005;-77
2023/12/09 07:01:28;;;;;;;19.88;3.95;;;;;;;;;;6424787;22;20009;-77
2023/12/09 07:03:54;;;;;;;10.43;3.55;;;;;;;;;;6398733;22;20039;-77
2023/12/09 07:06:28;;;;;;;9.52;3.22;;;;;;;;;;6410425;22;20009;-77
2023/12/09 07:08:54;;;;;;;8.82;3.22;;;;;;;;;;6401409;22;20814;-77
2023/12/09 07:11:20;;;;;;;16.15;3.25;;;;;;;;;;6423452;22;20013;-77
2023/12/09 07:13:46;;;;;;;10.52;3.67;;;;;;;;;;6393481;22;20025;-77
2023/12/09 07:16:13;;;;;;;20.35;2.47;;;;;;;;;;6422664;22;20010;-77
2023/12/09 07:18:48;;;;;;;5.47;2.35;;;;;;;;;;6423319;22;20001;-77
2023/12/09 07:21:16;;;;;;;9.10;2.65;;;;;;;;;;6392808;22;19996;-77
2023/12/09 07:23:45;;;;;;;18.17;3.70;;;;;;;;;;6423028;22;20021;-77
2023/12/09 07:26:12;;;;;;;9.48;2.22;;;;;;;;;;6393079;22;20013;-77
2023/12/09 07:28:37;;;;;;;9.32;3.20;;;;;;;;;;6393205;22;20469;-77
2023/12/09 07:31:03;;;;;;;5.22;2.08;;;;;;;;;;6420730;22;19997;-77
2023/12/09 07:33:28;;;;;;;5.47;1.80;;;;;;;;;;6422774;22;20013;-77
2023/12/09 07:35:54;;;;;;;8.13;2.53;;;;;;;;;;6423057;22;20004;-77
2023/12/09 07:38:20;;;;;;;9.25;3.35;;;;;;;;;;6392765;22;20065;-77
2023/12/09 07:40:46;;;;;;;10.90;2.70;;;;;;;;;;6421319;22;20076;-77
2023/12/09 07:43:11;;;;;;;14.45;3.13;;;;;;;;;;6422897;22;20013;-77
2023/12/09 07:45:37;;;;;;;7.60;1.67;;;;;;;;;;6419724;22;20010;-77
2023/12/09 07:48:03;;;;;;;14.23;3.20;;;;;;;;;;6394506;22;20506;-77
2023/12/09 07:50:32;;;;;;;11.70;3.13;;;;;;;;;;6421951;22;20456;-77
2023/12/09 07:52:58;;;;;;;10.52;3.00;;;;;;;;;;6421771;22;20254;-76
2023/12/09 07:55:23;;;;;;;7.40;2.95;;;;;;;;;;6392904;22;20484;-77
2023/12/09 07:57:48;;;;;;;8.07;2.33;;;;;;;;;;6421798;22;20017;-76
2023/12/09 08:00:14;;;;;;;12.98;3.75;;;;;;;;;;6393002;22;20019;-77
2023/12/09 08:02:39;;;;;;;7.85;2.22;;;;;;;;;;6422082;22;20017;-77
2023/12/09 08:05:06;;;;;;;15.18;2.22;;;;;;;;;;6422030;22;20025;-77
2023/12/09 08:07:31;;;;;;;13.48;3.53;;;;;;;;;;6422204;22;20022;-77
2023/12/09 08:09:56;;;;;;;6.65;2.20;;;;;;;;;;6422157;22;20105;-77
2023/12/09 08:12:22;;;;;;;20.58;4.50;;;;;;;;;;6422223;22;20370;-77
2023/12/09 08:14:47;;;;;;;12.93;2.20;;;;;;;;;;6421800;22;20445;-77
2023/12/09 08:17:12;;;;;;;4.07;1.88;;;;;;;;;;6393784;22;20032;-77
2023/12/09 08:19:38;;;;;;;7.18;2.45;;;;;;;;;;6394093;22;20005;-75
2023/12/09 08:22:03;;;;;;;10.02;2.42;;;;;;;;;;6396537;22;20013;-76
2023/12/09 08:24:29;;;;;;;7.90;2.05;;;;;;;;;;6405571;22;20024;-76
2023/12/09 08:26:54;;;;;;;11.85;1.92;;;;;;;;;;6442673;22;20020;-77
2023/12/09 08:29:21;;;;;;;7.35;1.63;;;;;;;;;;6431272;22;20005;-77
2023/12/09 08:31:49;;;;;;;4.80;2.15;;;;;;;;;;6424473;22;20515;-77
2023/12/09 08:34:15;;;;;;;7.35;3.13;;;;;;;;;;6393897;22;20013;-75
2023/12/09 08:36:41;;;;;;;4.70;1.85;;;;;;;;;;6422064;22;19996;-76
2023/12/09 08:39:07;;;;;;;6.70;2.22;;;;;;;;;;6421615;22;20076;-76
2023/12/09 08:41:33;;;;;;;8.85;1.88;;;;;;;;;;6393789;22;20012;-76
2023/12/09 08:43:58;;;;;;;4.78;1.90;;;;;;;;;;6393554;22;20006;-76
2023/12/09 08:46:24;;;;;;;9.18;2.33;;;;;;;;;;6420810;22;20024;-76
2023/12/09 08:48:49;;;;;;;6.40;1.98;;;;;;;;;;6421720;22;20069;-77
2023/12/09 08:51:14;;;;;;;4.28;1.48;;;;;;;;;;6422476;22;20006;-76
2023/12/09 08:53:40;;;;;;;9.70;2.85;;;;;;;;;;6421211;22;20037;-75
2023/12/09 08:56:07;;;;;;;5.20;1.80;;;;;;;;;;6391914;22;20025;-76
2023/12/09 08:58:32;;;;;;;4.80;1.48;;;;;;;;;;6419849;22;20046;-76
2023/12/09 09:00:57;;;;;;;9.30;1.35;;;;;;;;;;6421182;22;20039;-76
2023/12/09 09:03:23;;;;;;;3.40;1.10;;;;;;;;;;6420121;22;20377;-76
2023/12/09 09:05:48;;;;;;;4.38;1.67;;;;;;;;;;6392589;22;20556;-76
2023/12/09 09:08:13;;;;;;;4.18;1.40;;;;;;;;;;6421453;22;20065;-76
2023/12/09 09:10:39;;;;;;;3.20;1.13;;;;;;;;;;6420019;22;20017;-75
2023/12/09 09:13:04;;;;;;;1.33;1.02;;;;;;;;;;6420539;22;20084;-76
2023/12/09 09:15:30;;;;;;;3.08;1.42;;;;;;;;;;6419904;22;20001;-75
2023/12/09 09:17:56;;;;;;;5.70;1.05;;;;;;;;;;6420648;22;20042;-76
2023/12/09 09:20:22;;;;;;;3.08;1.00;;;;;;;;;;6419809;22;20009;-75
2023/12/09 09:22:47;;;;;;;3.80;1.38;;;;;;;;;;6421023;22;20089;-75
2023/12/09 09:25:15;;;;;;;2.92;1.40;;;;;;;;;;6391026;22;20021;-76
2023/12/09 09:27:40;;;;;;;2.17;0.90;;;;;;;;;;6391395;22;20460;-76
2023/12/09 09:30:07;;;;;;;1.77;1.20;;;;;;;;;;6393281;22;20084;-76
2023/12/09 09:32:32;;;;;;;4.72;1.05;;;;;;;;;;6420537;22;20040;-76
2023/12/09 09:34:57;;;;;;;2.05;0.82;;;;;;;;;;6392938;22;20021;-76
2023/12/09 09:37:23;;;;;;;4.82;1.15;;;;;;;;;;6420444;22;20021;-76
2023/12/09 09:39:48;;;;;;;1.33;0.80;;;;;;;;;;6420870;22;20101;-76
2023/12/09 09:42:29;;;;;;;1.98;1.15;;;;;;;;;;6425318;22;20053;-76
2023/12/09 09:45:08;;;;;;;4.20;1.08;;;;;;;;;;6434652;22;20031;-76
2023/12/09 09:47:39;;;;;;;2.55;0.90;;;;;;;;;;6430464;22;20018;-76
2023/12/09 09:50:06;;;;;;;9.75;1.17;;;;;;;;;;6420412;22;20058;-76
2023/12/09 09:52:35;;;;;;;1.95;1.00;;;;;;;;;;6393046;22;20014;-76
2023/12/09 09:55:03;;;;;;;1.83;0.90;;;;;;;;;;6394406;22;20452;-76
2023/12/09 09:57:28;;;;;;;1.45;0.57;;;;;;;;;;6395008;22;20032;-76
2023/12/09 09:59:56;;;;;;;4.45;1.02;;;;;;;;;;6424206;22;19998;-76
2023/12/09 10:02:22;;;;;;;3.90;1.08;;;;;;;;;;6394271;22;20005;-76
2023/12/09 10:04:47;;;;;;;0.50;0.50;;;;;;;;;;6416838;22;20364;-76
2023/12/09 10:07:14;;;;;;;1.67;0.70;;;;;;;;;;6393254;22;20045;-76
2023/12/09 10:09:40;;;;;;;0.93;0.75;;;;;;;;;;6422736;22;20002;-76
2023/12/09 10:12:06;;;;;;;1.63;0.90;;;;;;;;;;6423284;22;20000;-76
2023/12/09 10:14:32;;;;;;;2.55;0.90;;;;;;;;;;6423263;22;20029;-76
2023/12/09 10:16:57;;;;;;;2.80;0.98;;;;;;;;;;6393525;22;20044;-76
2023/12/09 10:19:22;;;;;;;4.40;0.77;;;;;;;;;;6422679;22;20029;-76
2023/12/09 10:21:48;;;;;;;1.17;0.73;;;;;;;;;;6421733;22;20021;-76
2023/12/09 10:24:13;;;;;;;1.20;0.75;;;;;;;;;;6393879;22;20113;-76
2023/12/09 10:26:39;;;;;;;1.98;0.60;;;;;;;;;;6423596;22;20018;-76
2023/12/09 10:29:06;;;;;;;2.05;0.65;;;;;;;;;;6423027;22;20017;-76
2023/12/09 10:31:34;;;;;;;1.88;0.88;;;;;;;;;;6393671;22;20013;-75
2023/12/09 10:34:00;;;;;;;1.48;1.05;;;;;;;;;;6393661;22;20010;-76
2023/12/09 10:36:26;;;;;;;1.52;0.65;;;;;;;;;;6421867;22;19998;-76
2023/12/09 10:38:55;;;;;;;2.75;0.70;;;;;;;;;;6393748;22;20344;-76
2023/12/09 10:41:21;;;;;;;3.13;0.82;;;;;;;;;;6392555;22;20368;-76
2023/12/09 10:43:47;;;;;;;0.73;0.60;;;;;;;;;;6393657;22;20066;-76
2023/12/09 10:46:13;;;;;;;1.88;0.98;;;;;;;;;;6393869;22;20410;-76
2023/12/09 10:48:41;;;;;;;1.08;0.60;;;;;;;;;;6422796;22;20006;-76
2023/12/09 10:51:07;;;;;;;2.65;0.90;;;;;;;;;;6422229;22;19997;-76
2023/12/09 10:53:33;;;;;;;2.28;0.50;;;;;;;;;;6422057;22;20080;-76
2023/12/09 10:55:58;;;;;;;2.63;0.60;;;;;;;;;;6422424;22;20017;-77
2023/12/09 10:58:24;;;;;;;0.88;0.57;;;;;;;;;;6394821;22;20017;-77
2023/12/09 11:00:51;;;;;;;1.85;0.50;;;;;;;;;;6423103;22;20016;-76
2023/12/09 11:03:17;;;;;;;0.70;0.50;;;;;;;;;;6405820;22;20398;-76
2023/12/09 11:05:46;;;;;;;1.45;0.75;;;;;;;;;;6412638;22;20027;-76
2023/12/09 11:08:12;;;;;;;0.93;0.80;;;;;;;;;;6404339;22;20020;-75
2023/12/09 11:10:38;;;;;;;0.45;0.40;;;;;;;;;;6395241;22;20098;-76
2023/12/09 11:13:04;;;;;;;2.67;0.57;;;;;;;;;;6418247;22;20014;-77
2023/12/09 11:15:30;;;;;;;1.13;0.60;;;;;;;;;;6393218;22;19997;-77
2023/12/09 11:18:06;;;;;;;1.92;0.90;;;;;;;;;;6393580;22;20045;-77
2023/12/09 11:20:31;;;;;;;2.10;0.70;;;;;;;;;;6392445;22;20009;-77
2023/12/09 11:22:56;;;;;;;0.70;0.70;;;;;;;;;;6391871;22;20016;-76
2023/12/09 11:25:25;;;;;;;0.95;0.40;;;;;;;;;;6422467;22;20005;-77
2023/12/09 11:27:52;;;;;;;1.92;0.68;;;;;;;;;;6422766;22;20084;-76
2023/12/09 11:30:41;;;;;;;0.60;0.60;;;;;;;;;;6395155;22;20000;-78
2023/12/09 11:33:07;;;;;;;1.85;0.70;;;;;;;;;;6422241;22;20020;-78
2023/12/09 11:35:34;;;;;;;1.52;0.65;;;;;;;;;;6393889;22;20017;-78
2023/12/09 11:38:01;;;;;;;2.15;0.98;;;;;;;;;;6423194;22;20009;-76
2023/12/09 11:40:29;;;;;;;1.20;0.75;;;;;;;;;;6393433;22;20480;-77
2023/12/09 11:43:08;;;;;;;1.10;0.52;;;;;;;;;;6394989;22;20029;-77
2023/12/09 11:45:35;;;;;;;0.88;0.60;;;;;;;;;;6421894;22;20376;-78
2023/12/09 11:48:03;;;;;;;1.08;0.60;;;;;;;;;;6422623;22;20127;-77
2023/12/09 11:50:29;;;;;;;2.47;0.60;;;;;;;;;;6394327;22;20345;-77
2023/12/09 11:52:54;;;;;;;1.33;0.82;;;;;;;;;;6421806;22;20046;-77
2023/12/09 11:55:19;;;;;;;1.20;0.60;;;;;;;;;;6394044;22;20027;-77
2023/12/09 11:57:45;;;;;;;2.83;0.70;;;;;;;;;;6422619;22;20021;-77
2023/12/09 12:00:13;;;;;;;1.85;0.77;;;;;;;;;;6423808;22;20004;-77
2023/12/09 12:02:45;;;;;;;0.35;0.35;;;;;;;;;;6422606;22;20025;-77
2023/12/09 12:05:11;;;;;;;1.45;0.63;;;;;;;;;;6393352;22;20074;-77
2023/12/09 12:07:37;;;;;;;1.77;0.47;;;;;;;;;;6416775;22;20106;-74
2023/12/09 12:10:07;;;;;;;0.45;0.43;;;;;;;;;;6392359;22;20073;-74
2023/12/09 12:12:33;;;;;;;0.57;0.55;;;;;;;;;;6421543;22;19997;-73
2023/12/09 12:14:58;;;;;;;0.60;0.47;;;;;;;;;;6421825;22;19997;-73
2023/12/09 12:17:24;;;;;;;0.50;0.50;;;;;;;;;;6392749;22;20084;-75
2023/12/09 12:19:49;;;;;;;1.35;0.60;;;;;;;;;;6423401;22;20584;-76
2023/12/09 12:22:15;;;;;;;2.55;0.70;;;;;;;;;;6428656;22;20706;-76
2023/12/09 12:24:44;;;;;;;0.40;0.38;;;;;;;;;;6406667;22;19989;-76
2023/12/09 12:27:09;;;;;;;1.25;0.50;;;;;;;;;;6400063;22;20002;-75
2023/12/09 12:29:39;;;;;;;1.27;0.55;;;;;;;;;;6391644;22;20013;-76
2023/12/09 12:32:13;;;;;;;0.30;0.30;;;;;;;;;;6391327;22;20092;-76
2023/12/09 12:34:44;;;;;;;0.60;0.40;;;;;;;;;;6391736;22;20023;-76
2023/12/09 12:37:10;;;;;;;0.43;0.40;;;;;;;;;;6419240;22;20815;-76
2023/12/09 12:39:35;;;;;;;0.95;0.55;;;;;;;;;;6420290;22;20081;-76
2023/12/09 12:42:00;;;;;;;0.68;0.50;;;;;;;;;;6392483;22;20424;-76
2023/12/09 12:44:26;;;;;;;0.40;0.40;;;;;;;;;;6419774;22;20066;-76
2023/12/09 12:46:51;;;;;;;2.67;0.45;;;;;;;;;;6390649;22;20027;-76
2023/12/09 12:49:17;;;;;;;0.75;0.50;;;;;;;;;;6391262;22;20018;-76
2023/12/09 12:51:42;;;;;;;0.32;0.32;;;;;;;;;;6420114;22;19998;-76
2023/12/09 12:54:07;;;;;;;1.17;0.57;;;;;;;;;;6419787;22;20012;-76
2023/12/09 12:56:34;;;;;;;3.88;0.82;;;;;;;;;;6390893;22;20349;-76
2023/12/09 12:58:59;;;;;;;0.40;0.40;;;;;;;;;;6418680;22;20092;-76
2023/12/09 13:01:25;;;;;;;0.30;0.30;;;;;;;;;;6392044;22;20033;-76
2023/12/09 13:03:51;;;;;;;0.95;0.30;;;;;;;;;;6419766;22;20005;-76
2023/12/09 13:06:16;;;;;;;2.15;0.38;;;;;;;;;;6386668;22;20001;-76
2023/12/09 13:08:42;;;;;;;0.32;0.32;;;;;;;;;;6419104;22;20020;-77
2023/12/09 13:11:09;;;;;;;0.30;0.30;;;;;;;;;;6418188;22;20017;-77
2023/12/09 13:13:34;;;;;;;1.23;0.40;;;;;;;;;;6417360;22;20009;-76
2023/12/09 13:15:59;;;;;;;0.22;0.22;;;;;;;;;;6421580;22;20029;-77
2023/12/09 13:18:25;;;;;;;0.82;0.30;;;;;;;;;;6420548;22;19997;-77
2023/12/09 13:20:52;;;;;;;0.75;0.45;;;;;;;;;;6419815;22;20005;-76
2023/12/09 13:23:17;;;;;;;0.40;0.40;;;;;;;;;;6419386;22;20009;-76
2023/12/09 13:25:43;;;;;;;0.30;0.30;;;;;;;;;;6392418;22;20012;-76
2023/12/09 13:28:08;;;;;;;1.65;0.40;;;;;;;;;;6391951;22;20472;-76
2023/12/09 13:30:34;;;;;;;0.30;0.30;;;;;;;;;;6419631;22;20001;-77
2023/12/09 13:33:01;;;;;;;0.38;0.38;;;;;;;;;;6422005;22;20003;-76
2023/12/09 13:35:28;;;;;;;0.98;0.43;;;;;;;;;;6423210;22;20009;-76
2023/12/09 13:37:54;;;;;;;0.30;0.30;;;;;;;;;;6395800;22;20092;-76
2023/12/09 13:40:19;;;;;;;0.30;0.30;;;;;;;;;;6427389;22;20376;-76
2023/12/09 13:42:45;;;;;;;0.30;0.30;;;;;;;;;;6408609;22;20013;-76
2023/12/09 13:45:13;;;;;;;0.43;0.43;;;;;;;;;;6417066;22;19989;-77
2023/12/09 13:47:38;;;;;;;1.02;0.50;;;;;;;;;;6428463;22;20018;-76
2023/12/09 13:50:05;;;;;;;0.55;0.30;;;;;;;;;;6394358;22;20013;-76
2023/12/09 13:52:31;;;;;;;1.30;0.60;;;;;;;;;;6422295;22;20444;-76
2023/12/09 13:54:58;;;;;;;0.40;0.40;;;;;;;;;;6393579;22;20013;-76
2023/12/09 13:57:23;;;;;;;4.18;1.77;;;;;;;;;;6396739;22;20554;-76
2023/12/09 13:59:49;;;;;;;0.43;0.43;;;;;;;;;;6421633;22;20088;-76
2023/12/09 14:02:14;;;;;;;0.68;0.40;;;;;;;;;;6395780;22;20077;-76
2023/12/09 14:04:40;;;;;;;0.45;0.40;;;;;;;;;;6422800;22;20041;-77
2023/12/09 14:07:05;;;;;;;1.08;0.55;;;;;;;;;;6420959;22;20022;-76
2023/12/09 14:09:30;;;;;;;1.65;0.50;;;;;;;;;;6422447;22;20032;-76
2023/12/09 14:11:56;;;;;;;0.98;0.82;;;;;;;;;;6424011;22;20343;-76
2023/12/09 14:14:22;;;;;;;0.77;0.70;;;;;;;;;;6395472;22;20005;-76
2023/12/09 14:16:48;;;;;;;2.00;0.60;;;;;;;;;;6394193;22;20010;-76
2023/12/09 14:19:13;;;;;;;0.55;0.47;;;;;;;;;;6392724;22;20028;-76
2023/12/09 14:21:39;;;;;;;2.60;0.88;;;;;;;;;;6394069;22;20360;-76
2023/12/09 14:24:05;;;;;;;1.75;1.02;;;;;;;;;;6393571;22;19997;-77
2023/12/09 14:26:30;;;;;;;1.33;0.70;;;;;;;;;;6393427;22;20028;-76
2023/12/09 14:28:56;;;;;;;0.57;0.40;;;;;;;;;;6412097;22;20002;-76
2023/12/09 14:31:22;;;;;;;1.15;0.73;;;;;;;;;;6419759;22;20027;-76